createdAt,value
2023-04-28T00:00:15.052Z,62.16
2023-04-28T00:02:43.478Z,62.06
2023-04-28T00:05:12.483Z,63.68
2023-04-28T00:07:41.022Z,63.61
2023-04-28T00:10:11.066Z,63.18
2023-04-28T00:12:39.789Z,62.90
2023-04-28T00:15:09.307Z,63.61
2023-04-28T00:17:39.251Z,63.18
2023-04-28T00:20:09.683Z,63.71
2023-04-28T00:22:42.651Z,63.41
2023-04-28T00:25:11.482Z,64.11
2023-04-28T00:27:39.804Z,64.93
2023-04-28T00:30:11.273Z,65.00
2023-04-28T00:32:42.890Z,66.20
2023-04-28T00:35:11.525Z,65.87
2023-04-28T00:37:40.703Z,66.36
2023-04-28T00:40:11.142Z,66.04
2023-04-28T00:42:39.433Z,65.92
2023-04-28T00:45:08.936Z,65.84
2023-04-28T00:47:41.269Z,65.53
2023-04-28T00:50:11.535Z,65.83
2023-04-28T00:52:50.176Z,66.12
2023-04-28T00:55:19.892Z,65.43
2023-04-28T00:57:48.362Z,65.34
2023-04-28T01:00:17.984Z,65.17
2023-04-28T01:02:47.779Z,65.38
2023-04-28T01:05:16.698Z,65.20
2023-04-28T01:07:45.489Z,65.00
2023-04-28T01:10:13.883Z,65.62
2023-04-28T01:12:42.157Z,65.91
2023-04-28T01:15:18.429Z,65.27
2023-04-28T01:17:49.406Z,65.40
2023-04-28T01:20:18.319Z,65.25
2023-04-28T01:22:46.883Z,65.17
2023-04-28T01:25:17.489Z,65.27
2023-04-28T01:27:45.771Z,65.12
2023-04-28T01:30:14.461Z,64.92
2023-04-28T01:32:42.763Z,65.49
2023-04-28T01:35:11.283Z,64.87
2023-04-28T01:37:39.761Z,64.88
2023-04-28T01:40:09.864Z,64.76
2023-04-28T01:42:39.515Z,64.71
2023-04-28T01:45:09.509Z,64.80
2023-04-28T01:47:38.753Z,64.85
2023-04-28T01:50:08.595Z,64.31
2023-04-28T01:52:37.669Z,64.50
2023-04-28T01:55:07.555Z,64.25
2023-04-28T01:57:41.017Z,64.24
2023-04-28T02:00:11.112Z,63.85
2023-04-28T02:02:49.973Z,63.72
2023-04-28T02:05:24.462Z,63.89
2023-04-28T02:07:53.672Z,64.03
2023-04-28T02:10:22.123Z,64.11
2023-04-28T02:12:52.174Z,63.99
2023-04-28T02:15:22.218Z,64.17
2023-04-28T02:17:50.723Z,64.00
2023-04-28T02:20:19.439Z,64.28
2023-04-28T02:22:47.940Z,64.48
2023-04-28T02:25:16.297Z,64.22
2023-04-28T02:27:44.586Z,64.22
2023-04-28T02:30:14.867Z,64.05
2023-04-28T02:32:43.087Z,63.82
2023-04-28T02:35:11.620Z,64.10
2023-04-28T02:37:40.185Z,63.84
2023-04-28T02:40:10.238Z,64.25
2023-04-28T02:42:38.579Z,64.19
2023-04-28T02:45:08.423Z,63.92
2023-04-28T02:47:38.277Z,63.65
2023-04-28T02:50:08.529Z,63.57
2023-04-28T02:52:39.624Z,63.33
2023-04-28T02:55:09.180Z,64.17
2023-04-28T02:57:37.574Z,64.29
2023-04-28T03:00:08.454Z,64.01
2023-04-28T03:02:48.180Z,63.72
2023-04-28T03:05:16.979Z,63.87
2023-04-28T03:07:45.257Z,63.57
2023-04-28T03:10:13.650Z,63.77
2023-04-28T03:12:44.789Z,63.91
2023-04-28T03:15:14.158Z,64.13
2023-04-28T03:17:43.391Z,64.05
2023-04-28T03:20:17.067Z,63.81
2023-04-28T03:22:46.313Z,64.16
2023-04-28T03:25:14.807Z,64.07
2023-04-28T03:27:49.391Z,64.00
2023-04-28T03:30:20.399Z,63.50
2023-04-28T03:32:48.695Z,63.45
2023-04-28T03:35:18.695Z,63.99
2023-04-28T03:37:46.937Z,64.02
2023-04-28T03:40:15.238Z,63.82
2023-04-28T03:43:16.249Z,63.77
2023-04-28T03:46:07.360Z,64.05
2023-04-28T03:48:35.975Z,63.93
2023-04-28T03:51:05.878Z,63.42
2023-04-28T03:53:34.243Z,63.54
2023-04-28T03:56:02.523Z,63.47
2023-04-28T03:58:30.805Z,63.33
2023-04-28T04:01:00.782Z,63.52
2023-04-28T04:03:33.633Z,63.46
2023-04-28T04:06:02.882Z,63.08
2023-04-28T04:08:33.337Z,62.92
2023-04-28T04:11:01.900Z,63.16
2023-04-28T04:13:30.258Z,63.00
2023-04-28T04:15:59.204Z,62.85
2023-04-28T04:18:28.701Z,62.83
2023-04-28T04:21:19.637Z,62.93
2023-04-28T04:23:50.274Z,62.96
2023-04-28T04:26:18.711Z,63.33
2023-04-28T04:28:49.324Z,63.48
2023-04-28T04:31:19.491Z,63.61
2023-04-28T04:33:48.692Z,63.39
2023-04-28T04:36:17.781Z,63.96
2023-04-28T04:38:46.092Z,64.09
2023-04-28T04:41:20.747Z,63.75
2023-04-28T04:43:50.021Z,64.08
2023-04-28T04:46:19.039Z,64.47
2023-04-28T04:48:47.595Z,64.31
2023-04-28T04:51:16.068Z,64.27
2023-04-28T04:53:44.504Z,64.32
2023-04-28T04:56:12.885Z,63.94
2023-04-28T04:58:45.114Z,63.92
2023-04-28T05:01:27.170Z,63.98
2023-04-28T05:03:55.985Z,63.79
2023-04-28T05:06:24.634Z,63.94
2023-04-28T05:08:53.055Z,63.75
2023-04-28T05:11:21.520Z,63.84
2023-04-28T05:13:51.452Z,63.61
2023-04-28T05:16:19.956Z,63.66
2023-04-28T05:19:00.503Z,63.28
2023-04-28T05:21:28.912Z,63.12
2023-04-28T05:23:57.506Z,63.16
2023-04-28T05:26:26.231Z,63.43
2023-04-28T05:29:02.132Z,63.22
2023-04-28T05:31:30.880Z,63.30
2023-04-28T05:34:01.444Z,62.90
2023-04-28T05:36:29.866Z,63.04
2023-04-28T05:38:58.293Z,62.83
2023-04-28T05:41:29.928Z,63.53
2023-04-28T05:43:59.718Z,64.39
2023-04-28T05:46:31.120Z,64.60
2023-04-28T05:49:01.463Z,65.27
2023-04-28T05:51:34.805Z,65.57
2023-04-28T05:54:04.191Z,65.70
2023-04-28T05:56:35.906Z,66.55
2023-04-28T05:59:06.288Z,66.80
2023-04-28T06:01:34.778Z,67.02
2023-04-28T06:04:03.504Z,67.50
2023-04-28T06:06:34.145Z,68.13
2023-04-28T06:09:06.000Z,68.08
2023-04-28T06:11:35.156Z,68.23
2023-04-28T06:14:06.008Z,68.17
2023-04-28T06:16:34.375Z,68.58
2023-04-28T06:19:06.660Z,68.40
2023-04-28T06:21:35.023Z,68.79
2023-04-28T06:24:05.092Z,68.84
2023-04-28T06:26:33.489Z,68.67
2023-04-28T06:29:13.101Z,68.54
2023-04-28T06:31:42.369Z,68.51
2023-04-28T06:34:11.012Z,68.88
2023-04-28T06:36:39.347Z,68.80
2023-04-28T06:39:08.288Z,68.50
2023-04-28T06:41:36.792Z,68.71
2023-04-28T06:44:07.877Z,69.11
2023-04-28T06:46:38.315Z,69.03
2023-04-28T06:49:06.806Z,68.65
2023-04-28T06:51:37.367Z,68.56
2023-04-28T06:54:05.952Z,69.13
2023-04-28T06:56:36.856Z,68.73
2023-04-28T06:59:05.298Z,69.25
2023-04-28T07:01:35.064Z,69.52
2023-04-28T07:04:03.670Z,69.54
2023-04-28T07:06:32.506Z,69.55
2023-04-28T07:09:00.960Z,69.82
2023-04-28T07:11:29.175Z,69.88
2023-04-28T07:13:57.528Z,70.19
2023-04-28T07:16:26.829Z,70.01
2023-04-28T07:18:57.158Z,69.95
2023-04-28T07:21:25.992Z,70.42
2023-04-28T07:23:57.028Z,70.77
2023-04-28T07:26:25.672Z,70.95
2023-04-28T07:28:53.973Z,70.96
2023-04-28T07:31:22.436Z,71.36
2023-04-28T07:33:50.960Z,71.14
2023-04-28T07:36:23.929Z,71.58
2023-04-28T07:38:52.240Z,71.70
2023-04-28T07:41:20.808Z,71.47
2023-04-28T07:43:49.216Z,71.17
2023-04-28T07:46:17.707Z,71.21
2023-04-28T07:48:46.747Z,71.31
2023-04-28T07:51:15.149Z,71.01
2023-04-28T07:53:44.816Z,70.57
2023-04-28T07:56:13.447Z,70.81
2023-04-28T07:58:43.898Z,70.77
2023-04-28T08:01:12.415Z,70.36
2023-04-28T08:03:41.413Z,70.91
2023-04-28T08:06:09.929Z,71.53
2023-04-28T08:08:38.366Z,71.81
2023-04-28T08:11:08.387Z,72.18
2023-04-28T08:13:37.049Z,72.51
2023-04-28T08:16:06.052Z,72.44
2023-04-28T08:18:40.988Z,72.57
2023-04-28T08:21:09.994Z,72.84
2023-04-28T08:23:38.386Z,72.62
2023-04-28T08:26:08.289Z,72.30
2023-04-28T08:28:38.686Z,72.07
2023-04-28T08:31:07.256Z,71.53
2023-04-28T08:33:35.762Z,71.60
2023-04-28T08:36:05.062Z,71.87
2023-04-28T08:38:33.350Z,71.87
2023-04-28T08:41:01.625Z,71.60
2023-04-28T08:43:33.385Z,71.45
2023-04-28T08:46:05.265Z,71.33
2023-04-28T08:48:42.710Z,71.69
2023-04-28T08:51:17.048Z,71.71
2023-04-28T08:56:28.558Z,73.07
2023-04-28T08:58:58.548Z,73.01
2023-04-28T09:01:28.065Z,73.48
2023-04-28T09:03:57.824Z,73.40
2023-04-28T09:06:26.393Z,73.04
2023-04-28T09:08:54.979Z,72.78
2023-04-28T09:11:25.193Z,73.85
2023-04-28T09:13:53.654Z,74.04
2023-04-28T09:16:23.696Z,75.17
2023-04-28T09:19:04.433Z,75.17
2023-04-28T09:21:32.805Z,74.56
2023-04-28T09:24:13.737Z,75.00
2023-04-28T09:26:55.360Z,75.70
2023-04-28T09:29:24.241Z,77.13
2023-04-28T09:31:54.633Z,77.74
2023-04-28T09:34:23.238Z,78.55
2023-04-28T09:36:51.722Z,78.21
2023-04-28T09:39:31.890Z,78.85
2023-04-28T09:42:03.724Z,78.51
2023-04-28T09:44:32.224Z,77.48
2023-04-28T09:47:02.580Z,76.96
2023-04-28T09:49:31.267Z,76.54
2023-04-28T09:52:14.337Z,76.17
2023-04-28T09:57:25.874Z,75.67
2023-04-28T09:59:55.259Z,74.82
2023-04-28T10:05:00.364Z,74.03
2023-04-28T10:07:30.872Z,74.21
2023-04-28T10:09:59.667Z,74.67
2023-04-28T10:12:28.358Z,75.11
2023-04-28T10:14:57.472Z,76.04
2023-04-28T10:17:29.343Z,76.53
2023-04-28T10:20:01.809Z,77.22
2023-04-28T10:22:55.990Z,77.79
2023-04-28T10:25:30.072Z,78.01
2023-04-28T10:28:00.571Z,76.33
2023-04-28T10:30:30.158Z,75.44
2023-04-28T10:33:26.921Z,74.66
2023-04-28T10:35:55.707Z,74.05
2023-04-28T10:38:24.234Z,73.01
2023-04-28T10:40:55.522Z,73.61
2023-04-28T10:43:47.742Z,73.63
2023-04-28T10:46:16.133Z,74.22
2023-04-28T10:48:58.955Z,76.29
2023-04-28T10:51:33.139Z,76.70
2023-04-28T10:54:28.117Z,76.41
2023-04-28T10:57:23.993Z,76.19
2023-04-28T10:59:52.640Z,76.17
2023-04-28T11:02:44.676Z,76.44
2023-04-28T11:05:20.469Z,75.86
2023-04-28T11:08:34.985Z,75.45
2023-04-28T11:11:21.093Z,75.84
2023-04-28T11:13:50.789Z,75.42
2023-04-28T11:16:22.816Z,75.17
2023-04-28T11:18:55.832Z,74.44
2023-04-28T11:21:28.278Z,75.12
2023-04-28T11:23:57.560Z,75.83
2023-04-28T11:26:26.702Z,76.31
2023-04-28T11:28:56.977Z,77.17
2023-04-28T11:31:27.222Z,78.12
2023-04-28T11:34:03.346Z,78.69
2023-04-28T11:36:36.534Z,78.78
2023-04-28T11:39:07.691Z,78.24
2023-04-28T11:41:37.003Z,77.49
2023-04-28T11:44:12.794Z,77.02
2023-04-28T11:46:50.667Z,75.28
2023-04-28T11:49:20.650Z,75.56
2023-04-28T11:51:50.563Z,73.96
2023-04-28T11:54:23.630Z,73.31
2023-04-28T11:56:57.439Z,71.38
2023-04-28T11:59:27.773Z,70.41
2023-04-28T12:01:59.303Z,70.39
2023-04-28T12:04:29.926Z,69.56
2023-04-28T12:07:05.133Z,70.24
2023-04-28T12:09:35.267Z,71.99
2023-04-28T12:12:05.949Z,74.28
2023-04-28T12:14:54.304Z,75.52
2023-04-28T12:17:27.811Z,76.00
2023-04-28T12:19:56.576Z,75.69
2023-04-28T12:22:27.332Z,73.78
2023-04-28T12:25:06.976Z,72.21
2023-04-28T12:27:38.538Z,71.74
2023-04-28T12:30:26.669Z,72.14
2023-04-28T12:32:56.075Z,74.11
2023-04-28T12:35:25.524Z,71.96
2023-04-28T12:38:01.359Z,72.10
2023-04-28T12:40:29.622Z,71.51
2023-04-28T12:42:58.054Z,71.68
2023-04-28T12:45:26.428Z,72.42
2023-04-28T12:47:55.426Z,73.22
2023-04-28T12:50:24.326Z,73.61
2023-04-28T12:52:53.998Z,74.69
2023-04-28T12:55:22.284Z,75.51
2023-04-28T12:57:50.597Z,75.82
2023-04-28T13:00:23.144Z,75.56
2023-04-28T13:02:52.334Z,77.00
2023-04-28T13:05:20.579Z,77.56
2023-04-28T13:07:49.382Z,76.79
2023-04-28T13:10:21.380Z,76.64
2023-04-28T13:12:49.654Z,90.93
2023-04-28T13:15:17.870Z,90.95
2023-04-28T13:17:46.662Z,90.61
2023-04-28T13:20:14.913Z,89.99
2023-04-28T13:22:43.423Z,89.16
2023-04-28T13:25:11.729Z,86.93
2023-04-28T13:27:43.185Z,87.27
2023-04-28T13:30:13.870Z,85.84
2023-04-28T13:32:42.056Z,86.04
2023-04-28T13:35:10.871Z,85.94
2023-04-28T13:37:45.542Z,85.45
2023-04-28T13:40:14.573Z,86.02
2023-04-28T13:42:53.926Z,85.48
2023-04-28T13:45:24.536Z,86.66
2023-04-28T13:47:52.979Z,86.30
2023-04-28T13:50:21.417Z,85.77
2023-04-28T13:52:49.717Z,85.43
2023-04-28T13:55:18.706Z,85.53
2023-04-28T13:57:46.957Z,85.11
2023-04-28T14:00:18.462Z,84.91
2023-04-28T14:02:49.638Z,84.86
2023-04-28T14:05:18.141Z,84.36
2023-04-28T14:07:47.139Z,84.28
2023-04-28T14:10:15.327Z,84.14
2023-04-28T14:12:43.512Z,83.66
2023-04-28T14:15:12.107Z,82.36
2023-04-28T14:17:41.707Z,81.50
2023-04-28T14:20:11.696Z,81.63
2023-04-28T14:22:40.414Z,81.69
2023-04-28T14:25:10.113Z,82.24
2023-04-28T14:27:38.364Z,81.68
2023-04-28T14:30:08.775Z,81.56
2023-04-28T14:32:39.730Z,79.93
2023-04-28T14:35:12.230Z,79.35
2023-04-28T14:37:41.205Z,79.67
2023-04-28T14:40:11.229Z,78.87
2023-04-28T14:42:39.801Z,78.15
2023-04-28T14:45:13.676Z,77.51
2023-04-28T14:47:42.729Z,78.61
2023-04-28T14:50:13.961Z,77.63
2023-04-28T14:52:42.568Z,76.86
2023-04-28T14:55:11.435Z,76.60
2023-04-28T14:57:40.050Z,75.84
2023-04-28T15:00:10.333Z,76.00
2023-04-28T15:02:39.500Z,76.36
2023-04-28T15:05:09.755Z,76.50
2023-04-28T15:07:39.363Z,75.76
2023-04-28T15:10:12.340Z,76.31
2023-04-28T15:12:41.137Z,74.47
2023-04-28T15:15:11.249Z,74.20
2023-04-28T15:17:40.128Z,74.28
2023-04-28T15:20:09.705Z,74.23
2023-04-28T15:22:39.496Z,73.62
2023-04-28T15:25:08.670Z,72.13
2023-04-28T15:27:36.956Z,72.43
2023-04-28T15:30:07.694Z,71.50
2023-04-28T15:32:38.640Z,72.77
2023-04-28T15:35:08.042Z,72.23
2023-04-28T15:37:49.252Z,72.52
2023-04-28T15:40:19.377Z,72.45
2023-04-28T15:42:51.785Z,71.50
2023-04-28T15:45:22.231Z,71.01
2023-04-28T15:47:52.483Z,71.66
2023-04-28T15:50:24.107Z,71.68
2023-04-28T15:52:53.809Z,71.61
2023-04-28T15:55:24.927Z,71.48
2023-04-28T15:57:53.488Z,72.24
2023-04-28T16:00:21.988Z,73.01
2023-04-28T16:02:50.416Z,73.56
2023-04-28T16:05:18.877Z,74.03
2023-04-28T16:07:47.624Z,73.91
2023-04-28T16:10:19.788Z,73.39
2023-04-28T16:12:48.092Z,73.18
2023-04-28T16:15:17.145Z,72.15
2023-04-28T16:17:45.473Z,72.96
2023-04-28T16:20:16.761Z,72.81
2023-04-28T16:22:45.337Z,73.03
2023-04-28T16:25:14.018Z,73.36
2023-04-28T16:27:44.438Z,72.32
2023-04-28T16:30:13.309Z,72.38
2023-04-28T16:32:42.039Z,72.40
2023-04-28T16:35:15.202Z,73.03
2023-04-28T16:37:44.192Z,73.21
2023-04-28T16:40:13.612Z,73.70
2023-04-28T16:42:43.597Z,74.05
2023-04-28T16:45:13.515Z,73.98
2023-04-28T16:47:43.740Z,74.23
2023-04-28T16:50:14.923Z,75.66
2023-04-28T16:52:43.617Z,75.75
2023-04-28T16:55:12.117Z,75.60
2023-04-28T16:57:41.549Z,75.33
2023-04-28T17:00:13.693Z,75.06
2023-04-28T17:02:42.331Z,75.20
2023-04-28T17:05:14.380Z,75.71
2023-04-28T17:07:42.863Z,76.47
2023-04-28T17:10:12.049Z,77.32
2023-04-28T17:12:49.670Z,77.88
2023-04-28T17:15:19.848Z,78.09
2023-04-28T17:17:50.807Z,78.73
2023-04-28T17:20:20.398Z,79.85
2023-04-28T17:22:50.170Z,81.78
2023-04-28T17:25:18.557Z,82.11
2023-04-28T17:27:47.028Z,83.25
2023-04-28T17:30:15.983Z,82.57
2023-04-28T17:32:45.677Z,82.75
2023-04-28T17:35:13.896Z,82.27
2023-04-28T17:37:42.185Z,81.81
2023-04-28T17:40:12.408Z,82.93
2023-04-28T17:42:40.736Z,83.42
2023-04-28T17:45:11.298Z,83.80
2023-04-28T17:47:39.704Z,84.04
2023-04-28T17:50:11.334Z,84.79
2023-04-28T17:52:40.212Z,84.12
2023-04-28T17:55:09.740Z,84.46
2023-04-28T17:57:38.050Z,83.99
2023-04-28T18:00:11.164Z,84.47
2023-04-28T18:02:45.536Z,83.77
2023-04-28T18:05:17.285Z,83.94
2023-04-28T18:07:45.633Z,83.44
2023-04-28T18:10:15.196Z,84.06
2023-04-28T18:12:46.427Z,84.33
2023-04-28T18:15:15.358Z,84.73
2023-04-28T18:17:43.705Z,84.65
2023-04-28T18:20:15.895Z,84.43
2023-04-28T18:22:44.141Z,83.89
2023-04-28T18:25:13.375Z,84.82
2023-04-28T18:27:41.891Z,85.04
2023-04-28T18:30:11.408Z,84.89
2023-04-28T18:32:39.770Z,85.68
2023-04-28T18:35:08.459Z,85.44
2023-04-28T18:37:38.184Z,85.35
2023-04-28T18:40:07.493Z,84.64
2023-04-28T18:42:36.040Z,84.94
2023-04-28T18:45:06.137Z,85.15
2023-04-28T18:47:35.150Z,85.46
2023-04-28T18:50:10.762Z,84.92
2023-04-28T18:52:40.403Z,84.44
2023-04-28T18:55:09.681Z,84.51
2023-04-28T18:57:38.461Z,84.42
2023-04-28T19:00:09.709Z,84.93
2023-04-28T19:02:38.163Z,85.38
2023-04-28T19:05:08.042Z,85.32
2023-04-28T19:07:36.213Z,84.94
2023-04-28T19:10:07.123Z,84.79
2023-04-28T19:12:35.507Z,84.34
2023-04-28T19:15:05.933Z,84.01
2023-04-28T19:17:34.219Z,83.45
2023-04-28T19:20:02.573Z,83.36
2023-04-28T19:22:33.022Z,83.66
2023-04-28T19:25:01.365Z,83.32
2023-04-28T19:27:43.010Z,83.54
2023-04-28T19:30:14.202Z,84.03
2023-04-28T19:32:46.365Z,83.95
2023-04-28T19:35:14.962Z,82.65
2023-04-28T19:37:44.547Z,82.08
2023-04-28T19:40:15.785Z,81.63
2023-04-28T19:42:45.450Z,81.56
2023-04-28T19:45:14.201Z,81.32
2023-04-28T19:47:42.523Z,81.32
2023-04-28T19:50:11.593Z,81.50
2023-04-28T19:52:47.629Z,81.77
2023-04-28T19:55:18.558Z,81.54
2023-04-28T19:57:48.513Z,81.53
2023-04-28T20:00:18.633Z,81.41
2023-04-28T20:02:47.158Z,80.77
2023-04-28T20:05:16.130Z,80.31
2023-04-28T20:07:44.552Z,80.12
2023-04-28T20:10:14.435Z,80.95
2023-04-28T20:12:43.080Z,80.27
2023-04-28T20:15:13.811Z,79.94
2023-04-28T20:17:43.433Z,79.83
2023-04-28T20:20:12.600Z,79.77
2023-04-28T20:22:41.720Z,79.83
2023-04-28T20:25:11.102Z,80.11
2023-04-28T20:27:41.806Z,79.73
2023-04-28T20:30:12.021Z,80.06
2023-04-28T20:32:41.937Z,80.09
2023-04-28T20:35:11.015Z,79.80
2023-04-28T20:37:39.581Z,79.72
2023-04-28T20:40:11.733Z,78.98
2023-04-28T20:42:45.980Z,78.91
2023-04-28T20:45:15.996Z,79.79
2023-04-28T20:47:44.387Z,79.96
2023-04-28T20:50:13.439Z,80.12
2023-04-28T20:52:44.259Z,80.40
2023-04-28T20:55:14.241Z,80.36
2023-04-28T20:57:42.517Z,80.35
2023-04-28T21:00:16.185Z,80.04
2023-04-28T21:02:45.370Z,80.00
2023-04-28T21:05:13.981Z,80.89
2023-04-28T21:07:42.167Z,81.23
2023-04-28T21:10:11.468Z,80.93
2023-04-28T21:12:39.768Z,80.11
2023-04-28T21:15:09.159Z,79.85
2023-04-28T21:17:40.447Z,80.40
2023-04-28T21:20:13.384Z,80.38
2023-04-28T21:22:41.708Z,80.79
2023-04-28T21:25:11.862Z,81.05
2023-04-28T21:27:40.265Z,80.82
2023-04-28T21:30:12.113Z,80.46
2023-04-28T21:32:42.182Z,80.64
2023-04-28T21:35:11.355Z,80.80
2023-04-28T21:37:39.630Z,81.27
2023-04-28T21:40:12.405Z,80.75
2023-04-28T21:42:40.633Z,81.37
2023-04-28T21:45:10.421Z,82.22
2023-04-28T21:47:42.049Z,82.24
2023-04-28T21:50:13.430Z,81.90
2023-04-28T21:52:41.840Z,81.63
2023-04-28T21:55:11.001Z,81.13
2023-04-28T21:57:43.371Z,81.61
2023-04-28T22:00:16.666Z,81.53
2023-04-28T22:02:45.254Z,81.70
2023-04-28T22:05:16.045Z,81.36
2023-04-28T22:07:44.527Z,81.52
2023-04-28T22:10:13.729Z,80.89
2023-04-28T22:12:42.010Z,80.51
2023-04-28T22:15:11.677Z,80.87
2023-04-28T22:17:43.286Z,80.31
2023-04-28T22:20:12.886Z,80.26
2023-04-28T22:22:43.143Z,81.00
2023-04-28T22:25:11.809Z,80.66
2023-04-28T22:27:40.570Z,80.67
2023-04-28T22:30:10.196Z,81.00
2023-04-28T22:32:38.631Z,81.02
2023-04-28T22:35:08.452Z,80.78
2023-04-28T22:37:37.981Z,80.52
2023-04-28T22:40:09.657Z,80.30
2023-04-28T22:42:38.395Z,80.12
2023-04-28T22:45:07.747Z,80.50
2023-04-28T22:47:36.471Z,81.28
2023-04-28T22:50:06.198Z,80.75
2023-04-28T22:52:34.845Z,81.37
2023-04-28T22:55:03.270Z,82.24
2023-04-28T22:57:33.022Z,82.00
2023-04-28T23:00:01.237Z,81.86
2023-04-28T23:02:29.827Z,81.42
2023-04-28T23:04:58.186Z,81.70
2023-04-28T23:07:26.788Z,81.41
2023-04-28T23:09:55.118Z,80.94
2023-04-28T23:12:23.210Z,80.78
2023-04-28T23:14:52.797Z,80.95
2023-04-28T23:17:21.016Z,80.44
2023-04-28T23:19:49.357Z,80.20
2023-04-28T23:22:17.922Z,80.21
2023-04-28T23:24:46.714Z,80.63
2023-04-28T23:27:15.069Z,80.43
2023-04-28T23:29:46.130Z,80.46
2023-04-28T23:32:15.734Z,80.49
2023-04-28T23:34:43.882Z,80.06
2023-04-28T23:37:12.133Z,80.90
2023-04-28T23:39:40.450Z,80.97
2023-04-28T23:42:10.577Z,81.88
2023-04-28T23:44:38.956Z,81.60
2023-04-28T23:47:07.174Z,81.73
2023-04-28T23:49:36.881Z,81.71
2023-04-28T23:52:05.038Z,81.94
2023-04-28T23:54:33.218Z,82.00
2023-04-28T23:57:01.425Z,81.48
2023-04-28T23:59:29.672Z,81.62
